Time;durP1;ratioP1;P1;durP2;ratioP2;P2;SDS_P1;SDS_P2;PMS_P1;PMS_P2;Temp;Humidity;BMP_temperature;BMP_pressure;BME280_temperature;BME280_humidity;BME280_pressure;Samples;Min_cycle;Max_cycle;Signal;HPM_P1;HPM_P2
2022/10/31 00:01:37;;;;;;;25.92;14.68;;;;;;;12.36;100.00;101995.13;5082528;28;20595;-82
2022/10/31 00:04:06;;;;;;;24.15;14.18;;;;;;;12.31;100.00;101991.53;5083652;27;20515;-82
2022/10/31 00:06:34;;;;;;;24.05;14.65;;;;;;;12.27;100.00;102001.16;5090183;28;20527;-81
2022/10/31 00:09:04;;;;;;;27.77;15.15;;;;;;;12.23;100.00;101995.78;5057103;28;20531;-81
2022/10/31 00:11:32;;;;;;;20.98;13.45;;;;;;;12.20;100.00;101995.75;5073682;28;20047;-82
2022/10/31 00:14:01;;;;;;;27.10;15.60;;;;;;;12.18;100.00;102005.41;5089063;28;20036;-83
2022/10/31 00:16:30;;;;;;;27.13;15.35;;;;;;;12.15;100.00;102005.38;5064320;28;20048;-83
2022/10/31 00:19:01;;;;;;;34.20;15.95;;;;;;;12.12;100.00;102006.22;5058015;28;20039;-82
2022/10/31 00:21:30;;;;;;;38.08;16.65;;;;;;;12.11;100.00;102007.06;5107946;28;20074;-82
2022/10/31 00:23:59;;;;;;;23.98;15.90;;;;;;;12.10;100.00;102013.22;5073457;28;20389;-83
2022/10/31 00:26:31;;;;;;;32.28;16.08;;;;;;;12.07;100.00;102019.34;5074692;28;20041;-82
2022/10/31 00:29:01;;;;;;;32.35;16.33;;;;;;;12.05;100.00;102018.44;5108098;28;20047;-83
2022/10/31 00:31:29;;;;;;;29.38;15.93;;;;;;;12.03;100.00;102017.50;5071708;28;20561;-82
2022/10/31 00:33:58;;;;;;;27.25;14.07;;;;;;;12.00;100.00;102017.50;5038562;28;20421;-82
2022/10/31 00:36:27;;;;;;;24.00;15.07;;;;;;;11.98;100.00;102015.66;5065387;28;20241;-82
2022/10/31 00:38:58;;;;;;;27.02;14.65;;;;;;;11.96;100.00;102020.03;5086753;28;20051;-82
2022/10/31 00:41:26;;;;;;;28.73;15.13;;;;;;;11.94;100.00;102021.75;5086813;28;20044;-82
2022/10/31 00:43:55;;;;;;;27.15;14.45;;;;;;;11.91;100.00;102022.63;5103797;28;20043;-82
2022/10/31 00:46:23;;;;;;;28.27;14.90;;;;;;;11.89;100.00;102026.97;5077300;28;20173;-82
2022/10/31 00:48:52;;;;;;;24.85;14.95;;;;;;;11.88;100.00;102035.72;5071844;28;20048;-83
2022/10/31 00:51:20;;;;;;;32.58;15.68;;;;;;;11.85;100.00;102030.38;5041515;28;20039;-82
2022/10/31 00:53:48;;;;;;;27.77;15.52;;;;;;;11.82;100.00;102025.06;5083212;28;20062;-82
2022/10/31 00:56:17;;;;;;;25.90;15.73;;;;;;;11.79;100.00;102025.88;5048278;27;20044;-82
2022/10/31 00:58:45;;;;;;;29.33;16.02;;;;;;;11.77;100.00;102029.38;5059923;28;20044;-82
2022/10/31 01:01:13;;;;;;;24.40;15.50;;;;;;;11.75;100.00;102031.09;5069463;28;20055;-83
2022/10/31 01:03:42;;;;;;;30.92;15.80;;;;;;;11.73;100.00;102035.47;5093514;28;20051;-82
2022/10/31 01:06:13;;;;;;;26.85;13.70;;;;;;;11.68;100.00;102031.00;5042166;28;20114;-82
2022/10/31 01:08:42;;;;;;;31.05;15.95;;;;;;;11.67;100.00;102029.22;5085845;28;20044;-82
2022/10/31 01:11:19;;;;;;;33.08;15.63;;;;;;;11.65;100.00;102032.69;5067116;28;20326;-83
2022/10/31 01:13:50;;;;;;;27.27;14.88;;;;;;;11.62;100.00;102035.28;5073167;28;20044;-82
2022/10/31 01:16:22;;;;;;;24.98;14.70;;;;;;;11.60;100.00;102031.72;5068264;28;20444;-83
2022/10/31 01:18:51;;;;;;;21.83;14.05;;;;;;;11.58;100.00;102036.09;5087960;28;20044;-83
2022/10/31 01:21:26;;;;;;;25.05;13.85;;;;;;;11.55;100.00;102038.66;5047640;28;20280;-83
2022/10/31 01:24:01;;;;;;;23.38;14.57;;;;;;;11.51;100.00;102037.72;5093814;28;20040;-82
2022/10/31 01:26:32;;;;;;;27.20;13.65;;;;;;;11.48;100.00;102043.84;5090011;28;20067;-83
2022/10/31 01:29:02;;;;;;;;;;;;;;;11.44;100.00;102047.28;5058534;28;20044;-81
2022/10/31 01:31:34;;;;;;;26.60;14.30;;;;;;;11.43;100.00;102048.13;5067983;28;20309;-83
2022/10/31 01:34:03;;;;;;;34.50;15.60;;;;;;;11.41;100.00;102041.06;5073706;28;20048;-83
2022/10/31 01:36:37;;;;;;;26.77;15.77;;;;;;;11.41;100.00;102046.34;5080646;28;20130;-82
2022/10/31 01:39:13;;;;;;;34.38;16.48;;;;;;;11.39;100.00;102042.78;5050488;28;20044;-83
2022/10/31 01:41:44;;;;;;;27.65;14.88;;;;;;;11.37;100.00;102048.03;5089380;28;20028;-82
2022/10/31 01:44:13;;;;;;;27.13;14.90;;;;;;;11.35;100.00;102052.38;5061804;28;20055;-82
2022/10/31 01:46:47;;;;;;;28.10;16.60;;;;;;;11.35;100.00;102052.38;5107769;28;20055;-82
2022/10/31 01:49:51;;;;;;;37.40;18.05;;;;;;;11.35;100.00;102048.88;5086912;28;20035;-82
2022/10/31 01:52:42;;;;;;;28.45;17.35;;;;;;;11.32;100.00;102037.38;5066965;28;20248;-82
2022/10/31 01:55:22;;;;;;;29.30;16.55;;;;;;;11.32;100.00;102039.13;5075753;28;20400;-82
2022/10/31 01:58:01;;;;;;;32.90;16.73;;;;;;;11.31;100.00;102040.88;5075395;28;20032;-82
2022/10/31 02:00:31;;;;;;;32.05;17.38;;;;;;;11.31;100.00;102035.59;5065739;28;20072;-82
2022/10/31 02:02:59;;;;;;;30.63;17.60;;;;;;;11.31;100.00;102046.16;5065013;28;20048;-82
2022/10/31 02:05:30;;;;;;;34.97;18.85;;;;;;;11.30;100.00;102030.28;5091698;28;20051;-82
2022/10/31 02:08:03;;;;;;;34.55;19.13;;;;;;;11.28;100.00;102035.53;5083890;28;20043;-83
2022/10/31 02:10:35;;;;;;;27.85;17.75;;;;;;;11.28;100.00;102040.81;5054829;28;20032;-83
2022/10/31 02:13:07;;;;;;;31.33;17.30;;;;;;;11.29;100.00;102036.44;5084276;28;20040;-83
2022/10/31 02:15:44;;;;;;;32.78;17.75;;;;;;;11.29;100.00;102032.03;5076982;28;20036;-82
2022/10/31 02:18:13;;;;;;;27.48;16.35;;;;;;;11.27;100.00;102046.06;5070772;28;20058;-83
2022/10/31 02:21:00;;;;;;;27.33;16.48;;;;;;;11.27;100.00;102038.16;5073215;28;20036;-82
2022/10/31 02:23:57;;;;;;;27.52;16.20;;;;;;;11.25;100.00;102032.84;5060996;28;24821;-82
2022/10/31 02:26:45;;;;;;;28.83;16.90;;;;;;;11.23;100.00;102042.47;5065941;28;20052;-82
2022/10/31 02:29:36;;;;;;;28.42;16.95;;;;;;;11.22;100.00;102040.69;5066956;28;20036;-83
2022/10/31 02:32:10;;;;;;;33.78;19.13;;;;;;;11.22;100.00;102039.81;5070902;28;20055;-83
2022/10/31 02:35:04;;;;;;;35.45;20.20;;;;;;;11.19;100.00;102045.94;5070092;28;20406;-82
2022/10/31 02:37:55;;;;;;;33.55;17.63;;;;;;;11.17;100.00;102038.81;5053182;28;20172;-82
2022/10/31 02:40:39;;;;;;;33.08;18.35;;;;;;;11.16;100.00;102039.69;5058213;28;20234;-82
2022/10/31 02:43:31;;;;;;;29.05;17.02;;;;;;;11.14;100.00;102051.97;5086026;28;20269;-82
2022/10/31 02:46:16;;;;;;;33.58;19.08;;;;;;;11.13;100.00;102040.50;5066348;28;20063;-82
2022/10/31 02:48:46;;;;;;;30.15;17.58;;;;;;;11.11;100.00;102039.59;5074004;28;20032;-82
2022/10/31 02:51:16;;;;;;;32.05;18.13;;;;;;;11.08;100.00;102036.91;5076766;28;20046;-83
2022/10/31 02:53:45;;;;;;;36.22;18.35;;;;;;;11.07;100.00;102045.66;5090633;28;20040;-82
2022/10/31 02:56:16;;;;;;;29.52;18.30;;;;;;;11.07;100.00;102043.03;5041119;28;20048;-82
2022/10/31 02:58:59;;;;;;;26.60;16.58;;;;;;;11.04;100.00;102038.59;5089233;28;20059;-81
2022/10/31 03:01:50;;;;;;;32.45;16.63;;;;;;;11.02;100.00;102032.41;5061017;28;20055;-82
2022/10/31 03:04:49;;;;;;;29.95;15.82;;;;;;;11.00;100.00;102027.94;5074669;28;20359;-82
2022/10/31 03:07:42;;;;;;;35.88;17.10;;;;;;;10.96;100.00;102024.34;5055293;28;20056;-83
2022/10/31 03:10:30;;;;;;;26.05;15.35;;;;;;;10.92;100.00;102033.94;5064191;28;20052;-82
2022/10/31 03:13:09;;;;;;;34.13;16.95;;;;;;;10.89;100.00;102036.53;5058466;28;20393;-82
2022/10/31 03:15:44;;;;;;;26.33;15.18;;;;;;;10.85;100.00;102044.31;5071518;28;20563;-82
2022/10/31 03:18:27;;;;;;;23.85;14.70;;;;;;;10.81;100.00;102040.75;5072995;28;20039;-83
2022/10/31 03:21:08;;;;;;;24.73;14.20;;;;;;;10.79;100.00;102049.47;5073676;28;20044;-82
2022/10/31 03:23:39;;;;;;;22.70;16.10;;;;;;;10.77;100.00;102044.16;5107405;28;20408;-82
2022/10/31 03:26:08;;;;;;;;;;;;;;;10.76;100.00;102049.44;5082283;28;20748;-83
2022/10/31 03:28:48;;;;;;;21.52;14.30;;;;;;;10.74;100.00;102052.03;5072947;28;19920;-82
2022/10/31 03:31:20;;;;;;;28.92;16.23;;;;;;;10.72;100.00;102053.75;5069273;28;20044;-82
2022/10/31 03:33:52;;;;;;;29.95;17.58;;;;;;;10.72;100.00;102048.47;5082459;28;20493;-82
2022/10/31 03:36:22;;;;;;;33.60;16.85;;;;;;;10.72;100.00;102051.09;5078614;28;20441;-82
2022/10/31 03:38:52;;;;;;;28.27;16.25;;;;;;;10.71;100.00;102038.75;5073154;28;20509;-82
2022/10/31 03:41:27;;;;;;;25.48;15.43;;;;;;;10.69;100.00;102040.47;5036957;28;20258;-82
2022/10/31 03:44:01;;;;;;;28.90;15.60;;;;;;;10.66;100.00;102040.41;5081616;28;20055;-82
2022/10/31 03:46:30;;;;;;;28.80;15.85;;;;;;;10.63;100.00;102049.16;5074012;27;20044;-82
2022/10/31 03:49:00;;;;;;;27.30;15.55;;;;;;;10.60;100.00;102058.72;5066204;28;20039;-82
2022/10/31 03:51:44;;;;;;;19.75;13.73;;;;;;;10.58;100.00;102057.81;5088977;28;20035;-82
2022/10/31 03:54:24;;;;;;;23.65;14.02;;;;;;;10.54;100.00;102060.34;5090199;28;20052;-82
2022/10/31 03:57:11;;;;;;;22.17;13.35;;;;;;;10.53;100.00;102057.72;5041961;28;20409;-82
2022/10/31 03:59:44;;;;;;;22.73;13.10;;;;;;;10.48;100.00;102057.59;5080901;28;20052;-82
2022/10/31 04:02:18;;;;;;;28.42;15.75;;;;;;;10.46;100.00;102061.94;5068714;27;20124;-82
2022/10/31 04:04:48;;;;;;;25.27;15.15;;;;;;;10.45;100.00;102060.19;5074953;28;20042;-82
2022/10/31 04:07:19;;;;;;;22.85;15.30;;;;;;;10.45;100.00;102059.25;5061383;28;20479;-83
2022/10/31 04:09:52;;;;;;;24.00;14.55;;;;;;;10.43;100.00;102066.25;5106764;28;20040;-82
2022/10/31 04:12:25;;;;;;;28.20;16.70;;;;;;;10.41;100.00;102060.94;5039515;28;20448;-82
2022/10/31 04:15:17;;;;;;;24.42;15.82;;;;;;;10.41;100.00;102063.56;5081906;28;20043;-83
2022/10/31 04:17:50;;;;;;;28.25;16.58;;;;;;;10.42;100.00;102064.47;5062586;28;20091;-82
2022/10/31 04:20:30;;;;;;;26.38;15.20;;;;;;;10.38;100.00;102047.72;5083242;28;20039;-84
2022/10/31 04:23:00;;;;;;;24.27;14.73;;;;;;;10.36;100.00;102052.06;5087340;28;20044;-80
2022/10/31 04:25:29;;;;;;;24.20;15.23;;;;;;;10.33;100.00;102060.75;5077373;28;20150;-83
2022/10/31 04:27:58;;;;;;;22.55;15.93;;;;;;;10.31;100.00;102061.59;5049034;28;20304;-83
2022/10/31 04:30:27;;;;;;;22.55;15.00;;;;;;;10.30;100.00;102060.69;5082122;28;20175;-80
2022/10/31 04:32:56;;;;;;;24.92;15.65;;;;;;;10.28;100.00;102057.13;5073126;28;20053;-83
2022/10/31 04:35:24;;;;;;;21.10;14.38;;;;;;;10.25;100.00;102062.28;5058889;28;20044;-82
2022/10/31 04:37:54;;;;;;;26.58;15.00;;;;;;;10.23;100.00;102063.13;5064121;28;20356;-82
2022/10/31 04:40:23;;;;;;;25.65;15.15;;;;;;;10.20;100.00;102063.91;5056269;28;20028;-82
2022/10/31 04:43:10;;;;;;;24.55;14.32;;;;;;;10.19;100.00;102066.50;5064171;28;20040;-82
2022/10/31 04:45:39;;;;;;;22.63;14.80;;;;;;;10.15;100.00;102069.09;5078972;28;20040;-82
2022/10/31 04:48:09;;;;;;;21.02;13.95;;;;;;;10.12;100.00;102071.63;5086253;28;20651;-83
2022/10/31 04:50:40;;;;;;;26.73;13.82;;;;;;;10.10;100.00;102065.44;5056243;28;20043;-82
2022/10/31 04:53:08;;;;;;;25.90;15.13;;;;;;;10.09;100.00;102070.66;5076292;28;20040;-82
2022/10/31 04:55:48;;;;;;;28.03;16.23;;;;;;;10.08;100.00;102067.16;5088492;28;20043;-82
2022/10/31 04:58:20;;;;;;;24.75;15.30;;;;;;;10.06;100.00;102065.34;5062196;28;20066;-82
2022/10/31 05:00:54;;;;;;;22.20;14.00;;;;;;;10.03;100.00;102058.25;5066181;28;20052;-81
2022/10/31 05:03:22;;;;;;;25.63;15.23;;;;;;;10.01;100.00;102057.31;5052313;28;20047;-81
2022/10/31 05:05:51;;;;;;;29.33;15.88;;;;;;;10.00;100.00;102055.56;5093730;28;20047;-81
2022/10/31 05:08:20;;;;;;;27.25;15.95;;;;;;;9.98;100.00;102056.34;5082087;28;20036;-81
2022/10/31 05:10:51;;;;;;;26.58;15.77;;;;;;;9.95;100.00;102060.69;5076956;28;20039;-81
2022/10/31 05:13:20;;;;;;;24.73;15.25;;;;;;;9.93;100.00;102059.75;5046470;28;20264;-81
2022/10/31 05:16:11;;;;;;;30.27;17.23;;;;;;;9.90;100.00;102051.78;5104742;28;20035;-81
2022/10/31 05:18:58;;;;;;;28.67;14.48;;;;;;;9.89;100.00;102065.81;5095805;28;20044;-82
2022/10/31 05:21:53;;;;;;;26.73;15.88;;;;;;;9.86;100.00;102056.94;5082618;27;20508;-81
2022/10/31 05:24:21;;;;;;;27.50;15.88;;;;;;;9.85;100.00;102066.59;5067998;28;20047;-84
2022/10/31 05:26:50;;;;;;;21.98;15.35;;;;;;;9.85;100.00;102055.13;5047543;28;20032;-84
2022/10/31 05:29:18;;;;;;;36.35;16.95;;;;;;;9.83;100.00;102063.03;5031662;28;20050;-80
2022/10/31 05:31:46;;;;;;;26.98;17.10;;;;;;;9.82;100.00;102066.50;5089787;28;20394;-81
2022/10/31 05:34:35;;;;;;;34.83;18.40;;;;;;;9.81;100.00;102067.34;5065483;28;20043;-82
2022/10/31 05:37:22;;;;;;;30.67;18.00;;;;;;;9.80;100.00;102056.78;5063162;28;20070;-82
2022/10/31 05:39:50;;;;;;;25.92;16.00;;;;;;;9.80;100.00;102067.31;5083423;28;20036;-83
2022/10/31 05:42:19;;;;;;;27.38;16.92;;;;;;;9.80;100.00;102069.94;5061768;27;20246;-82
2022/10/31 05:44:48;;;;;;;23.40;15.05;;;;;;;9.78;100.00;102066.38;5062976;28;20047;-82
2022/10/31 05:47:31;;;;;;;34.88;19.10;;;;;;;9.75;100.00;102069.81;5068430;28;20032;-82
2022/10/31 05:50:19;;;;;;;29.67;16.45;;;;;;;9.72;100.00;102062.72;5093141;28;20256;-82
2022/10/31 05:52:58;;;;;;;28.55;17.00;;;;;;;9.71;100.00;102067.94;5087723;28;20051;-83
2022/10/31 05:55:32;;;;;;;26.92;16.70;;;;;;;9.68;100.00;102074.03;5069736;28;20043;-81
2022/10/31 05:58:10;;;;;;;26.52;16.52;;;;;;;9.66;100.00;102069.56;5072032;28;20417;-82
2022/10/31 06:00:45;;;;;;;26.85;17.13;;;;;;;9.65;100.00;102075.69;5048679;28;20067;-81
2022/10/31 06:03:16;;;;;;;27.70;16.65;;;;;;;9.64;100.00;102077.44;5059152;28;20244;-82
2022/10/31 06:05:54;;;;;;;25.30;16.98;;;;;;;9.62;100.00;102076.53;5084200;28;20043;-82
2022/10/31 06:08:26;;;;;;;31.40;17.67;;;;;;;9.60;100.00;102072.03;5061035;28;20516;-81
2022/10/31 06:10:56;;;;;;;23.58;17.10;;;;;;;9.59;100.00;102078.16;5064461;28;20509;-81
2022/10/31 06:13:44;;;;;;;27.95;18.05;;;;;;;9.59;100.00;102075.53;5062325;28;20052;-81
2022/10/31 06:16:21;;;;;;;28.30;18.10;;;;;;;9.60;100.00;102074.66;5087956;28;20043;-81
2022/10/31 06:18:50;;;;;;;36.60;20.95;;;;;;;9.60;100.00;102078.19;5036182;28;20544;-81
2022/10/31 06:21:19;;;;;;;30.00;19.27;;;;;;;9.62;100.00;102080.88;5072130;28;20027;-81
2022/10/31 06:23:51;;;;;;;30.70;17.52;;;;;;;9.62;100.00;102073.88;5059365;27;20046;-81
2022/10/31 06:26:42;;;;;;;27.95;18.25;;;;;;;9.63;100.00;102082.66;5066531;28;20572;-81
2022/10/31 06:29:11;;;;;;;36.50;20.00;;;;;;;9.63;100.00;102075.66;5083826;28;20043;-85
2022/10/31 06:32:15;;;;;;;26.20;17.25;;;;;;;9.63;100.00;102082.66;5040310;28;20044;-83
2022/10/31 06:34:50;;;;;;;25.40;15.95;;;;;;;9.61;100.00;102082.63;5059207;28;20031;-82
2022/10/31 06:37:18;;;;;;;28.80;18.33;;;;;;;9.60;100.00;102085.19;5091768;28;20056;-82
2022/10/31 06:39:49;;;;;;;22.33;15.77;;;;;;;9.59;100.00;102081.69;5068458;28;20051;-82
2022/10/31 06:42:18;;;;;;;27.05;17.10;;;;;;;9.57;100.00;102083.38;5062835;28;20059;-83
2022/10/31 06:44:47;;;;;;;24.17;15.98;;;;;;;9.57;100.00;102083.38;5071705;28;20431;-82
2022/10/31 06:47:53;;;;;;;31.30;17.85;;;;;;;9.59;100.00;102080.81;5015042;28;20659;-82
2022/10/31 06:51:02;;;;;;;26.30;18.40;;;;;;;9.60;100.00;102086.09;5082041;28;20044;-82
2022/10/31 06:53:30;;;;;;;25.73;16.33;;;;;;;9.61;100.00;102087.00;5075745;28;20031;-83
2022/10/31 06:55:58;;;;;;;28.27;17.15;;;;;;;9.62;100.00;102083.50;5069341;28;20043;-82
2022/10/31 06:58:27;;;;;;;24.92;17.30;;;;;;;9.63;100.00;102087.94;5048150;28;20040;-81
2022/10/31 07:01:00;;;;;;;23.73;16.98;;;;;;;9.64;100.00;102087.06;5050134;28;20056;-81
2022/10/31 07:03:29;;;;;;;29.15;17.23;;;;;;;9.65;100.00;102086.22;5039640;28;20051;-81
2022/10/31 07:05:57;;;;;;;25.40;16.23;;;;;;;9.67;100.00;102087.16;5050542;28;20058;-83
2022/10/31 07:08:26;;;;;;;23.55;15.77;;;;;;;9.69;100.00;102081.06;5067308;28;20036;-84
2022/10/31 07:10:59;;;;;;;26.52;17.40;;;;;;;9.71;100.00;102086.38;5027402;28;20052;-84
2022/10/31 07:13:29;;;;;;;;;;;;;;;9.73;100.00;102085.59;5041598;28;20048;-83
2022/10/31 07:16:06;;;;;;;26.40;16.70;;;;;;;9.76;100.00;102085.66;5045117;28;19920;-83
2022/10/31 07:18:36;;;;;;;28.48;18.38;;;;;;;9.80;100.00;102091.00;5085190;28;20032;-84
2022/10/31 07:21:05;;;;;;;29.27;17.75;;;;;;;9.84;100.00;102084.97;5051197;28;20500;-83
2022/10/31 07:23:33;;;;;;;29.60;17.55;;;;;;;9.88;100.00;102086.81;5050861;28;20247;-84
2022/10/31 07:26:21;;;;;;;37.65;21.55;;;;;;;9.93;100.00;102090.47;5071200;28;20035;-86
2022/10/31 07:28:49;;;;;;;34.53;19.92;;;;;;;9.98;100.00;102095.84;5076000;28;20044;-86
2022/10/31 07:31:22;;;;;;;31.40;18.17;;;;;;;10.00;100.00;102089.78;5076896;28;20113;-85
2022/10/31 07:33:53;;;;;;;27.35;19.02;;;;;;;10.02;100.00;102085.44;5067712;28;20040;-85
2022/10/31 07:36:28;;;;;;;34.38;21.08;;;;;;;10.06;100.00;102092.56;5046203;28;20244;-85
2022/10/31 07:39:02;;;;;;;34.00;20.17;;;;;;;10.08;100.00;102087.34;5081977;28;20035;-85
2022/10/31 07:41:33;;;;;;;35.92;21.52;;;;;;;10.14;100.00;102090.13;5045686;28;20409;-85
2022/10/31 07:44:03;;;;;;;33.35;18.67;;;;;;;10.18;100.00;102089.34;5038461;28;20040;-85
2022/10/31 07:46:50;;;;;;;34.83;20.65;;;;;;;10.23;100.00;102089.47;5076891;28;20039;-85
2022/10/31 07:49:37;;;;;;;32.78;21.08;;;;;;;10.29;100.00;102085.22;5069428;28;20257;-86
2022/10/31 07:52:25;;;;;;;28.95;19.48;;;;;;;10.38;100.00;102086.31;5056808;28;20028;-86
2022/10/31 07:55:16;;;;;;;30.80;19.27;;;;;;;10.47;100.00;102083.91;5084364;28;20035;-85
2022/10/31 07:58:05;;;;;;;30.38;20.05;;;;;;;10.54;100.00;102088.47;5069380;28;20520;-84
2022/10/31 08:00:39;;;;;;;37.05;20.77;;;;;;;10.62;100.00;102089.53;5069289;28;20032;-83
2022/10/31 08:03:17;;;;;;;31.58;19.95;;;;;;;10.70;100.00;102095.00;5065240;28;20039;-85
2022/10/31 08:06:04;;;;;;;30.63;19.38;;;;;;;10.79;100.00;102102.22;5077379;28;20031;-84
2022/10/31 08:09:00;;;;;;;30.77;19.27;;;;;;;10.86;100.00;102105.00;5036857;28;20108;-84
2022/10/31 08:11:28;;;;;;;31.42;19.60;;;;;;;10.93;100.00;102100.78;5061225;28;20320;-84
2022/10/31 08:13:58;;;;;;;27.90;18.20;;;;;;;11.00;100.00;102102.69;5045178;28;20048;-84
2022/10/31 08:16:27;;;;;;;30.83;18.52;;;;;;;11.09;100.00;102101.97;5062370;28;20032;-85
2022/10/31 08:19:00;;;;;;;24.60;17.48;;;;;;;11.17;100.00;102097.78;5070416;28;20039;-84
2022/10/31 08:21:31;;;;;;;23.52;16.52;;;;;;;11.25;100.00;102093.53;5069285;28;20036;-84
2022/10/31 08:24:00;;;;;;;25.53;17.47;;;;;;;11.35;100.00;102096.38;5040137;28;20396;-84
2022/10/31 08:26:30;;;;;;;23.35;17.15;;;;;;;11.45;100.00;102095.66;5081243;28;20321;-84
2022/10/31 08:28:59;;;;;;;32.13;19.13;;;;;;;11.54;100.00;102090.56;5065031;28;20040;-84
2022/10/31 08:31:32;;;;;;;27.88;19.02;;;;;;;11.63;100.00;102096.03;5061504;28;20265;-84
2022/10/31 08:34:25;;;;;;;24.25;18.27;;;;;;;11.74;100.00;102103.25;5065394;28;20035;-84
2022/10/31 08:37:12;;;;;;;29.70;19.55;;;;;;;11.81;100.00;102090.19;5094559;28;20040;-85
2022/10/31 08:39:48;;;;;;;27.55;18.35;;;;;;;11.90;100.00;102094.78;5041127;28;20036;-84
2022/10/31 08:42:17;;;;;;;27.60;18.92;;;;;;;11.98;100.00;102101.06;5071804;28;20412;-83
2022/10/31 08:44:45;;;;;;;27.83;18.77;;;;;;;12.06;100.00;102103.84;5082624;28;20149;-85
2022/10/31 08:47:14;;;;;;;29.73;18.27;;;;;;;12.12;100.00;102095.13;5055586;28;20044;-85
2022/10/31 08:49:42;;;;;;;27.08;17.67;;;;;;;12.16;100.00;102099.63;5068221;27;21480;-86
2022/10/31 08:52:11;;;;;;;21.38;16.25;;;;;;;12.20;100.00;102098.81;5074708;28;20149;-85
2022/10/31 08:54:46;;;;;;;22.33;15.88;;;;;;;12.23;100.00;102101.50;5046965;28;20420;-84
2022/10/31 08:57:33;;;;;;;26.00;18.10;;;;;;;12.25;100.00;102099.78;5067985;28;20044;-85
2022/10/31 09:00:02;;;;;;;25.08;17.63;;;;;;;12.28;100.00;102107.75;5069672;28;20047;-84
2022/10/31 09:03:03;;;;;;;27.95;17.65;;;;;;;12.35;100.00;102107.00;5065271;28;20051;-84
2022/10/31 09:05:33;;;;;;;22.65;17.73;;;;;;;12.44;100.00;102111.53;5052051;27;20548;-85
2022/10/31 09:08:04;;;;;;;23.73;17.70;;;;;;;12.48;100.00;102108.97;5102364;28;20044;-85
2022/10/31 09:10:35;;;;;;;26.60;18.20;;;;;;;12.53;100.00;102106.38;5068112;28;20047;-84
2022/10/31 09:13:11;;;;;;;;;;;;;;;12.55;100.00;102102.03;5092821;28;20032;-83
2022/10/31 09:15:58;;;;;;;21.30;16.30;;;;;;;12.59;100.00;102102.94;5097846;28;19927;-84
2022/10/31 09:18:31;;;;;;;24.05;17.08;;;;;;;12.63;100.00;102102.13;5076809;28;20074;-86
2022/10/31 09:21:00;;;;;;;20.98;16.15;;;;;;;12.65;100.00;102097.75;5057426;28;20036;-84
2022/10/31 09:23:31;;;;;;;25.77;16.40;;;;;;;12.65;100.00;102101.28;5070325;28;20149;-84
2022/10/31 09:26:01;;;;;;;18.93;15.30;;;;;;;12.68;100.00;102103.97;5060541;28;20492;-85
2022/10/31 09:28:35;;;;;;;21.58;16.52;;;;;;;12.72;100.00;102107.56;5073652;28;20423;-85
2022/10/31 09:31:08;;;;;;;19.67;15.75;;;;;;;12.72;100.00;102112.84;5074307;28;20392;-84
2022/10/31 09:33:56;;;;;;;25.27;16.55;;;;;;;12.73;100.00;102098.75;5090777;28;20047;-83
2022/10/31 09:36:38;;;;;;;23.23;17.55;;;;;;;12.76;100.00;102106.75;5066408;27;20066;-86
2022/10/31 09:39:13;;;;;;;22.60;17.88;;;;;;;12.80;100.00;102105.91;5074973;28;20400;-86
2022/10/31 09:42:16;;;;;;;19.95;16.05;;;;;;;12.84;100.00;102098.91;5071551;28;20247;-84
2022/10/31 09:45:01;;;;;;;21.27;16.15;;;;;;;12.88;100.00;102096.31;5062750;28;20052;-84
2022/10/31 09:48:00;;;;;;;20.88;15.38;;;;;;;12.91;100.00;102094.56;5067575;28;20074;-83
2022/10/31 09:50:41;;;;;;;20.55;15.40;;;;;;;12.94;100.00;102094.63;5058898;28;20336;-84
2022/10/31 09:54:00;;;;;;;21.52;15.93;;;;;;;12.98;100.00;102092.03;5083990;28;20338;-84
2022/10/31 09:56:32;;;;;;;21.15;14.45;;;;;;;13.02;100.00;102087.66;5041511;28;20086;-83
2022/10/31 09:59:03;;;;;;;20.67;14.93;;;;;;;13.07;100.00;102094.78;5030815;28;20047;-82
2022/10/31 10:01:42;;;;;;;18.92;14.32;;;;;;;13.13;100.00;102087.81;5060727;27;20047;-83
2022/10/31 10:04:39;;;;;;;20.83;15.40;;;;;;;13.21;100.00;102086.13;5092942;28;20035;-83
2022/10/31 10:07:27;;;;;;;22.10;13.38;;;;;;;13.27;100.00;102088.88;5064604;27;20035;-84
2022/10/31 10:10:48;;;;;;;16.70;13.70;;;;;;;13.33;100.00;102081.03;5080937;28;20040;-84
2022/10/31 10:13:42;;;;;;;20.10;14.02;;;;;;;13.36;100.00;102088.13;5075597;28;20512;-84
2022/10/31 10:16:33;;;;;;;15.88;12.93;;;;;;;13.40;100.00;102082.88;5076475;28;20042;-86
2022/10/31 10:19:04;;;;;;;19.45;12.30;;;;;;;13.43;100.00;102074.06;5056114;28;20058;-83
2022/10/31 10:21:42;;;;;;;17.73;12.63;;;;;;;13.49;100.00;102074.13;5061723;28;20036;-84
2022/10/31 10:24:23;;;;;;;17.60;12.52;;;;;;;13.56;100.00;102081.28;5074761;28;20048;-85
2022/10/31 10:27:17;;;;;;;16.45;13.15;;;;;;;13.61;100.00;102078.66;5077374;28;20031;-84
2022/10/31 10:29:57;;;;;;;19.23;13.15;;;;;;;13.65;100.00;102078.72;5077175;28;20047;-84
2022/10/31 10:32:42;;;;;;;15.60;12.60;;;;;;;13.74;100.00;102074.38;5060737;28;20398;-84
2022/10/31 10:35:24;;;;;;;17.75;12.50;;;;;;;13.80;100.00;102066.53;5058327;28;20037;-85
2022/10/31 10:37:59;;;;;;;17.48;12.40;;;;;;;13.86;100.00;102068.34;5082498;28;20043;-83
2022/10/31 10:40:29;;;;;;;17.25;11.85;;;;;;;13.87;100.00;102070.09;5076382;28;20036;-85
2022/10/31 10:43:22;;;;;;;14.90;11.43;;;;;;;13.84;100.00;102066.53;5043564;28;20040;-83
2022/10/31 10:49:24;;;;;;;19.77;12.65;;;;;;;13.75;100.00;102066.47;5094124;28;20044;-84
2022/10/31 10:52:03;;;;;;;17.42;12.70;;;;;;;13.73;100.00;102064.69;5047334;28;20055;-83
2022/10/31 10:55:09;;;;;;;15.10;12.38;;;;;;;13.72;100.00;102062.88;5105528;28;20044;-84
2022/10/31 10:57:53;;;;;;;17.65;12.68;;;;;;;13.73;100.00;102060.25;5080378;28;20035;-84
2022/10/31 11:00:27;;;;;;;18.63;13.10;;;;;;;13.75;100.00;102055.84;5063962;28;20408;-84
2022/10/31 11:02:56;;;;;;;16.85;11.70;;;;;;;13.77;100.00;102050.59;5073630;28;20051;-83
2022/10/31 11:05:38;;;;;;;18.27;12.18;;;;;;;13.78;100.00;102044.38;5072435;28;20401;-85
2022/10/31 11:08:07;;;;;;;22.95;14.48;;;;;;;13.81;100.00;102049.72;5069839;28;20051;-84
2022/10/31 11:10:36;;;;;;;17.75;13.00;;;;;;;13.84;100.00;102044.47;5051430;28;20039;-84
2022/10/31 11:13:17;;;;;;;21.25;12.98;;;;;;;13.87;100.00;102040.94;5054668;28;20523;-84
2022/10/31 11:15:55;;;;;;;19.35;13.05;;;;;;;13.88;100.00;102048.91;5082164;28;20237;-85
2022/10/31 11:18:30;;;;;;;18.30;12.18;;;;;;;13.91;100.00;102040.97;5102055;28;20044;-84
2022/10/31 11:21:02;;;;;;;23.42;14.10;;;;;;;13.98;100.00;102044.56;5081555;28;20040;-84
2022/10/31 11:23:32;;;;;;;16.00;10.05;;;;;;;14.10;100.00;102035.81;5061663;28;20040;-85
2022/10/31 11:26:03;;;;;;;12.55;9.40;;;;;;;14.18;100.00;102039.44;5091310;28;20055;-85
2022/10/31 11:28:36;;;;;;;13.48;9.38;;;;;;;14.24;100.00;102036.81;5046605;28;20048;-85
2022/10/31 11:31:13;;;;;;;13.40;8.95;;;;;;;14.29;100.00;102027.16;5060901;28;20040;-85
2022/10/31 11:33:49;;;;;;;12.93;8.00;;;;;;;14.33;100.00;102028.03;5055237;28;20044;-84
2022/10/31 11:36:25;;;;;;;15.40;8.38;;;;;;;14.37;100.00;102021.91;5075023;28;20051;-85
2022/10/31 11:38:54;;;;;;;11.23;7.97;;;;;;;14.38;100.00;102019.22;5068462;28;20043;-85
2022/10/31 11:41:31;;;;;;;15.75;8.45;;;;;;;14.41;100.00;102021.91;5067153;28;20063;-85
2022/10/31 11:44:04;;;;;;;11.05;7.20;;;;;;;14.45;100.00;102021.94;5074920;28;20051;-84
2022/10/31 11:46:34;;;;;;;17.73;8.75;;;;;;;14.48;100.00;102028.16;5063534;28;20031;-84
2022/10/31 11:49:05;;;;;;;15.35;9.13;;;;;;;14.51;100.00;102016.66;5086485;28;20032;-84